Time;durP1;ratioP1;P1;durP2;ratioP2;P2;SDS_P1;SDS_P2;PMS_P1;PMS_P2;Temp;Humidity;BMP_temperature;BMP_pressure;BME280_temperature;BME280_humidity;BME280_pressure;Samples;Min_cycle;Max_cycle;Signal;HPM_P1;HPM_P2
2021/07/24 00:01:09;;;;;;;24.77;14.80;;;19.70;99.90;;;;;;5076980;28;20427;-56
2021/07/24 00:03:35;;;;;;;24.85;15.50;;;19.60;99.90;;;;;;5071910;28;20494;-55
2021/07/24 00:06:00;;;;;;;23.05;14.75;;;19.60;99.90;;;;;;5068958;28;20433;-56
2021/07/24 00:08:26;;;;;;;22.50;13.93;;;19.50;99.90;;;;;;5069251;28;20480;-56
2021/07/24 00:10:52;;;;;;;31.27;16.30;;;19.60;99.90;;;;;;5068638;28;20404;-54
2021/07/24 00:13:18;;;;;;;26.85;17.38;;;19.60;99.90;;;;;;5069282;28;20769;-55
2021/07/24 00:15:44;;;;;;;26.23;17.80;;;19.70;99.90;;;;;;5068625;28;20411;-55
2021/07/24 00:18:10;;;;;;;22.83;15.75;;;19.80;99.90;;;;;;5073089;28;20380;-55
2021/07/24 00:20:36;;;;;;;25.33;17.42;;;19.90;99.90;;;;;;5073312;28;20382;-54
2021/07/24 00:23:03;;;;;;;29.38;17.30;;;19.90;99.90;;;;;;5072873;28;20765;-55
2021/07/24 00:25:29;;;;;;;29.70;17.30;;;19.70;99.90;;;;;;5073444;28;20387;-54
2021/07/24 00:27:55;;;;;;;21.80;16.38;;;19.70;99.90;;;;;;5072629;28;20390;-55
2021/07/24 00:30:20;;;;;;;25.80;16.10;;;19.70;99.90;;;;;;5073361;28;20380;-55
2021/07/24 00:32:46;;;;;;;26.23;15.90;;;19.70;99.90;;;;;;5072483;28;20387;-55
2021/07/24 00:35:12;;;;;;;24.05;16.27;;;19.60;99.90;;;;;;5073015;28;20411;-55
2021/07/24 00:37:37;;;;;;;27.98;16.77;;;18.30;99.90;;;;;;5072593;28;20928;-54
2021/07/24 00:40:03;;;;;;;25.53;17.20;;;19.50;99.90;;;;;;5073170;28;21261;-55
2021/07/24 00:42:31;;;;;;;27.45;17.63;;;19.60;99.90;;;;;;5072866;28;20533;-55
2021/07/24 00:45:01;;;;;;;25.73;16.70;;;19.60;99.90;;;;;;5071944;28;20376;-55
2021/07/24 00:47:32;;;;;;;23.52;17.17;;;19.60;99.90;;;;;;5072836;28;20391;-54
2021/07/24 00:49:58;;;;;;;25.55;17.38;;;19.60;99.90;;;;;;5072574;28;20462;-55
2021/07/24 00:52:24;;;;;;;25.17;16.70;;;19.40;99.90;;;;;;5072374;28;20487;-55
2021/07/24 00:54:50;;;;;;;24.23;17.15;;;19.30;99.90;;;;;;5071934;28;20467;-55
2021/07/24 00:57:16;;;;;;;25.75;18.35;;;19.30;99.90;;;;;;5072785;28;20895;-55
2021/07/24 00:59:41;;;;;;;26.80;18.37;;;19.40;99.90;;;;;;5071563;28;20424;-55
2021/07/24 01:02:07;;;;;;;26.40;17.42;;;19.40;99.90;;;;;;5071960;28;20422;-55
2021/07/24 01:04:34;;;;;;;24.33;16.90;;;19.40;99.90;;;;;;5072413;28;20390;-55
2021/07/24 01:07:03;;;;;;;27.73;18.23;;;19.40;99.90;;;;;;5071719;28;20702;-56
2021/07/24 01:09:30;;;;;;;24.92;16.80;;;19.30;99.90;;;;;;5071982;28;20418;-55
2021/07/24 01:11:56;;;;;;;32.90;18.60;;;19.90;99.90;;;;;;5071724;28;20379;-57
2021/07/24 01:14:22;;;;;;;26.77;18.33;;;19.40;99.90;;;;;;5072393;28;20498;-55
2021/07/24 01:16:47;;;;;;;28.60;18.87;;;19.30;99.90;;;;;;5070094;28;20407;-55
2021/07/24 01:19:13;;;;;;;24.48;17.67;;;19.20;99.90;;;;;;5072173;28;20376;-55
2021/07/24 01:21:39;;;;;;;26.30;17.27;;;19.20;99.90;;;;;;5071660;28;20372;-54
2021/07/24 01:24:05;;;;;;;24.80;16.80;;;19.30;99.90;;;;;;5071708;28;20402;-55
2021/07/24 01:26:34;;;;;;;26.55;17.48;;;19.30;99.90;;;;;;5072123;28;20380;-56
2021/07/24 01:29:00;;;;;;;24.25;16.92;;;19.40;99.90;;;;;;5070321;28;20375;-55
2021/07/24 01:31:26;;;;;;;25.80;17.80;;;19.40;99.90;;;;;;5071632;28;20741;-55
2021/07/24 01:33:51;;;;;;;28.00;18.50;;;19.40;99.90;;;;;;5070001;28;20903;-55
2021/07/24 01:36:17;;;;;;;25.63;16.70;;;19.50;99.90;;;;;;5071512;28;20388;-55
2021/07/24 01:38:43;;;;;;;25.52;18.02;;;19.50;99.90;;;;;;5070855;28;20388;-54
2021/07/24 01:41:11;;;;;;;34.13;18.60;;;19.40;99.90;;;;;;5070757;28;20927;-55
2021/07/24 01:43:37;;;;;;;27.80;19.10;;;19.00;99.90;;;;;;5071662;28;20399;-55
2021/07/24 01:46:03;;;;;;;27.77;18.60;;;18.80;99.90;;;;;;5071130;28;20383;-55
2021/07/24 01:48:43;;;;;;;25.98;17.35;;;18.60;99.90;;;;;;5071881;28;20420;-55
2021/07/24 01:53:59;;;;;;;25.58;17.25;;;18.70;99.90;;;;;;5071082;28;20425;-55
2021/07/24 01:56:30;;;;;;;25.45;18.30;;;18.70;99.90;;;;;;5071627;28;20785;-55
2021/07/24 01:58:56;;;;;;;25.63;17.97;;;18.70;99.90;;;;;;5071380;28;20382;-55
2021/07/24 02:01:26;;;;;;;29.30;19.25;;;18.60;99.90;;;;;;5072033;28;20730;-55
2021/07/24 02:03:54;;;;;;;28.80;18.95;;;18.40;99.90;;;;;;5070961;28;20408;-55
2021/07/24 02:06:20;;;;;;;27.13;19.27;;;18.40;99.90;;;;;;5071273;28;20927;-55
2021/07/24 02:08:49;;;;;;;28.52;18.20;;;18.40;99.90;;;;;;5071057;28;20468;-55
2021/07/24 02:11:15;;;;;;;29.25;18.40;;;18.50;99.90;;;;;;5071375;28;20411;-55
2021/07/24 02:13:41;;;;;;;27.10;18.20;;;18.50;99.90;;;;;;5069351;28;20520;-55
2021/07/24 02:16:07;;;;;;;27.13;18.20;;;18.60;99.90;;;;;;5071408;28;20383;-54
2021/07/24 02:18:33;;;;;;;28.40;18.47;;;18.60;99.90;;;;;;5071441;28;20380;-55
2021/07/24 02:21:01;;;;;;;26.85;18.42;;;18.60;99.90;;;;;;5070384;28;20427;-55
2021/07/24 02:23:27;;;;;;;29.10;19.27;;;18.70;99.90;;;;;;5070984;28;20414;-54
2021/07/24 02:25:53;;;;;;;30.13;19.33;;;18.80;99.90;;;;;;5070473;28;20384;-55
2021/07/24 02:28:18;;;;;;;29.77;18.75;;;18.70;99.90;;;;;;5070845;28;20384;-55
2021/07/24 02:30:44;;;;;;;30.65;20.23;;;18.70;99.90;;;;;;5068952;28;20395;-54
2021/07/24 02:33:10;;;;;;;28.33;19.37;;;18.70;99.90;;;;;;5071068;28;20392;-55
2021/07/24 02:35:36;;;;;;;29.02;18.67;;;18.80;99.90;;;;;;5071048;28;20744;-55
2021/07/24 02:38:02;;;;;;;27.42;18.65;;;18.90;99.90;;;;;;5070074;28;20392;-56
2021/07/24 02:40:28;;;;;;;27.67;18.48;;;18.90;99.90;;;;;;5070891;28;20842;-55
2021/07/24 02:42:54;;;;;;;26.23;18.60;;;18.90;99.90;;;;;;5068658;28;20394;-55
2021/07/24 02:45:20;;;;;;;27.67;17.80;;;18.80;99.90;;;;;;5070902;28;20861;-55
2021/07/24 02:47:46;;;;;;;26.58;17.50;;;18.80;99.90;;;;;;5069672;28;20390;-55
2021/07/24 02:50:12;;;;;;;28.43;17.83;;;18.80;99.90;;;;;;5070629;28;20380;-55
2021/07/24 02:52:38;;;;;;;25.00;16.85;;;18.80;99.90;;;;;;5070703;28;20917;-55
2021/07/24 02:55:05;;;;;;;26.93;17.07;;;18.80;99.90;;;;;;5069907;28;20392;-55
2021/07/24 02:57:32;;;;;;;26.73;17.67;;;18.90;99.90;;;;;;5070601;28;20475;-55
2021/07/24 02:59:57;;;;;;;27.13;17.48;;;18.90;99.90;;;;;;5068455;28;20399;-56
2021/07/24 03:02:23;;;;;;;26.07;16.90;;;18.80;99.90;;;;;;5070137;28;20400;-55
2021/07/24 03:04:48;;;;;;;24.33;16.50;;;18.90;99.90;;;;;;5069687;28;20874;-54
2021/07/24 03:07:14;;;;;;;23.40;16.27;;;19.00;99.90;;;;;;5070687;28;20376;-55
2021/07/24 03:09:40;;;;;;;27.50;17.20;;;19.10;99.90;;;;;;5070018;28;20451;-54
2021/07/24 03:12:05;;;;;;;24.57;16.40;;;19.30;99.90;;;;;;5069741;28;20730;-55
2021/07/24 03:14:31;;;;;;;24.50;16.17;;;19.40;99.90;;;;;;5070417;28;20812;-55
2021/07/24 03:16:57;;;;;;;25.50;17.17;;;19.40;99.90;;;;;;5069286;28;20398;-55
2021/07/24 03:19:22;;;;;;;25.53;16.50;;;19.40;99.90;;;;;;5069768;28;20927;-55
2021/07/24 03:21:48;;;;;;;28.10;17.30;;;19.40;99.90;;;;;;5069455;28;20475;-55
2021/07/24 03:24:14;;;;;;;25.90;16.52;;;19.30;99.90;;;;;;5069915;28;20853;-55
2021/07/24 03:26:40;;;;;;;25.60;16.65;;;19.30;99.90;;;;;;5069751;28;20387;-55
2021/07/24 03:29:07;;;;;;;25.45;16.42;;;19.40;99.90;;;;;;5070348;28;20838;-55
2021/07/24 03:31:32;;;;;;;24.77;16.88;;;19.40;99.90;;;;;;5070066;28;20383;-55
2021/07/24 03:33:58;;;;;;;27.30;17.30;;;19.40;99.90;;;;;;5068847;28;20390;-55
2021/07/24 03:36:24;;;;;;;26.30;17.02;;;19.50;99.90;;;;;;5069756;28;20394;-55
2021/07/24 03:38:49;;;;;;;24.92;16.52;;;19.60;99.90;;;;;;5068211;28;20386;-54
2021/07/24 03:41:15;;;;;;;24.33;16.10;;;19.60;99.90;;;;;;5073366;28;20866;-55
2021/07/24 03:43:43;;;;;;;24.67;16.43;;;19.60;99.90;;;;;;5077442;28;20900;-54
2021/07/24 03:46:15;;;;;;;28.67;16.80;;;19.50;99.90;;;;;;5069781;28;20467;-55
2021/07/24 03:48:41;;;;;;;26.08;16.92;;;19.40;99.90;;;;;;5069496;28;20473;-54
2021/07/24 03:51:12;;;;;;;23.40;17.30;;;19.40;99.90;;;;;;5069012;28;20407;-55
2021/07/24 03:53:41;;;;;;;24.53;16.67;;;19.40;99.90;;;;;;5069620;28;20380;-55
2021/07/24 03:56:16;;;;;;;27.48;17.38;;;19.50;99.90;;;;;;5068988;28;20435;-55
2021/07/24 03:58:43;;;;;;;25.58;18.40;;;19.60;99.90;;;;;;5069187;28;20379;-53
2021/07/24 04:01:09;;;;;;;25.77;17.57;;;19.60;99.90;;;;;;5069592;28;20379;-55
2021/07/24 04:03:35;;;;;;;26.48;17.88;;;19.50;99.90;;;;;;5069559;28;20742;-56
2021/07/24 04:06:01;;;;;;;27.47;17.97;;;19.40;99.90;;;;;;5068536;28;20491;-55
2021/07/24 04:08:27;;;;;;;25.90;17.90;;;19.40;99.90;;;;;;5069595;28;20459;-55
2021/07/24 04:10:53;;;;;;;25.55;18.13;;;19.60;99.90;;;;;;5068919;28;20483;-55
2021/07/24 04:13:19;;;;;;;25.10;17.90;;;19.60;99.90;;;;;;5069119;28;20902;-55
2021/07/24 04:15:45;;;;;;;25.17;17.60;;;19.60;99.90;;;;;;5068912;28;20386;-54
2021/07/24 04:18:11;;;;;;;26.38;17.42;;;19.50;99.90;;;;;;5069460;28;20861;-55
2021/07/24 04:20:38;;;;;;;26.40;18.87;;;19.40;99.90;;;;;;5069342;28;20429;-55
2021/07/24 04:23:05;;;;;;;27.55;18.55;;;19.20;99.90;;;;;;5068692;28;20399;-55
2021/07/24 04:25:30;;;;;;;26.33;18.55;;;19.10;99.90;;;;;;5071920;28;20398;-55
2021/07/24 04:27:56;;;;;;;28.88;18.80;;;19.10;99.90;;;;;;5080054;28;20381;-55
2021/07/24 04:30:27;;;;;;;25.13;19.13;;;19.20;99.90;;;;;;5081393;28;20886;-55
2021/07/24 04:32:53;;;;;;;25.10;17.67;;;19.30;99.90;;;;;;5075730;28;20855;-55
2021/07/24 04:35:19;;;;;;;24.50;17.60;;;19.50;99.90;;;;;;5085941;28;20386;-55
2021/07/24 04:37:44;;;;;;;25.07;16.53;;;19.70;99.90;;;;;;5068731;28;20912;-54
2021/07/24 04:40:11;;;;;;;25.08;18.00;;;19.80;99.90;;;;;;5068943;28;20383;-55
2021/07/24 04:42:37;;;;;;;25.83;17.97;;;19.80;99.90;;;;;;5074385;28;20762;-55
2021/07/24 04:45:03;;;;;;;24.90;17.50;;;20.00;99.90;;;;;;5079803;28;20873;-59
2021/07/24 04:47:29;;;;;;;23.40;17.30;;;20.10;99.90;;;;;;5071139;28;20938;-56
2021/07/24 04:49:54;;;;;;;24.90;17.37;;;20.20;99.90;;;;;;5085127;28;20378;-56
2021/07/24 04:52:21;;;;;;;25.23;18.13;;;20.20;99.90;;;;;;5089623;28;20374;-56
2021/07/24 04:54:48;;;;;;;26.77;17.90;;;20.10;99.90;;;;;;5085505;28;20403;-56
2021/07/24 04:57:16;;;;;;;27.02;17.10;;;20.00;99.90;;;;;;5069090;28;20381;-56
2021/07/24 04:59:48;;;;;;;25.30;17.63;;;19.90;99.90;;;;;;5069324;28;20430;-56
2021/07/24 05:02:18;;;;;;;26.13;17.55;;;19.80;99.90;;;;;;5068982;28;20387;-57
2021/07/24 05:04:46;;;;;;;26.60;18.05;;;19.90;99.90;;;;;;5071411;28;20379;-55
2021/07/24 05:07:12;;;;;;;26.60;18.00;;;20.10;99.90;;;;;;5073120;28;20388;-56
2021/07/24 05:09:42;;;;;;;25.17;17.75;;;20.20;99.90;;;;;;5073156;28;20423;-56
2021/07/24 05:12:08;;;;;;;25.27;18.25;;;20.20;99.90;;;;;;5086763;28;20481;-56
2021/07/24 05:14:35;;;;;;;29.27;17.40;;;20.20;99.90;;;;;;5093225;28;20389;-56
2021/07/24 05:17:11;;;;;;;25.33;17.23;;;20.20;99.90;;;;;;5092697;28;20378;-56
2021/07/24 05:19:45;;;;;;;23.38;16.70;;;20.30;99.90;;;;;;5093188;28;20500;-56
2021/07/24 05:22:13;;;;;;;24.47;17.27;;;20.30;99.90;;;;;;5092798;28;20862;-56
2021/07/24 05:24:46;;;;;;;26.75;17.83;;;20.10;99.90;;;;;;5092811;28;20501;-56
2021/07/24 05:27:13;;;;;;;25.40;16.50;;;20.10;99.90;;;;;;5085538;28;20405;-56
2021/07/24 05:29:39;;;;;;;25.03;17.93;;;20.10;99.90;;;;;;5088412;28;20711;-56
2021/07/24 05:32:05;;;;;;;28.63;18.33;;;19.90;99.90;;;;;;5086153;28;20621;-56
2021/07/24 05:34:31;;;;;;;29.55;19.13;;;20.00;99.90;;;;;;5092013;28;20409;-56
2021/07/24 05:36:56;;;;;;;28.33;18.00;;;20.10;99.90;;;;;;5081221;28;20869;-56
2021/07/24 05:39:22;;;;;;;31.97;17.83;;;20.30;99.90;;;;;;5071813;28;20391;-56
2021/07/24 05:41:48;;;;;;;24.40;16.40;;;20.50;99.90;;;;;;5071742;28;20383;-57
2021/07/24 05:44:17;;;;;;;23.92;17.27;;;21.00;99.90;;;;;;5075526;28;20405;-57
2021/07/24 05:46:43;;;;;;;26.65;18.13;;;21.40;99.90;;;;;;5090767;28;20759;-55
2021/07/24 05:49:09;;;;;;;27.10;18.45;;;21.70;99.90;;;;;;5091937;28;20381;-57
2021/07/24 05:51:35;;;;;;;26.45;18.02;;;21.70;99.90;;;;;;5082266;28;20739;-57
2021/07/24 05:54:01;;;;;;;28.02;18.27;;;21.80;99.90;;;;;;5091005;28;20417;-57
2021/07/24 05:56:27;;;;;;;27.65;19.65;;;22.20;99.90;;;;;;5091986;28;20910;-57
2021/07/24 05:58:52;;;;;;;25.80;19.27;;;22.50;99.90;;;;;;5090538;28;20731;-56
2021/07/24 06:01:18;;;;;;;29.23;18.40;;;22.70;99.90;;;;;;5091564;28;20875;-57
2021/07/24 06:03:44;;;;;;;27.70;19.50;;;23.00;99.90;;;;;;5091295;28;20402;-56
2021/07/24 06:06:09;;;;;;;27.40;18.40;;;23.00;99.90;;;;;;5090347;28;20480;-58
2021/07/24 06:08:35;;;;;;;29.45;18.35;;;23.00;99.90;;;;;;5091163;28;20381;-57
2021/07/24 06:11:02;;;;;;;25.30;18.50;;;22.90;99.90;;;;;;5090553;28;20402;-57
2021/07/24 06:13:28;;;;;;;25.80;17.63;;;22.60;99.90;;;;;;5091641;28;20386;-57
2021/07/24 06:15:54;;;;;;;27.70;18.00;;;22.50;99.90;;;;;;5090055;28;20374;-57
2021/07/24 06:18:22;;;;;;;27.65;17.75;;;22.30;99.90;;;;;;5091304;28;20492;-57
2021/07/24 06:20:49;;;;;;;29.73;18.85;;;22.10;99.90;;;;;;5090341;28;20385;-56
2021/07/24 06:23:15;;;;;;;27.52;18.90;;;22.00;99.90;;;;;;5090528;28;20443;-57
2021/07/24 06:25:45;;;;;;;26.90;18.45;;;21.80;99.90;;;;;;5091012;28;20425;-57
2021/07/24 06:28:11;;;;;;;27.05;18.42;;;21.80;99.90;;;;;;5090514;28;20413;-57
2021/07/24 06:30:37;;;;;;;25.67;17.80;;;21.80;99.90;;;;;;5089711;28;20488;-57
2021/07/24 06:33:04;;;;;;;29.42;18.67;;;21.90;99.90;;;;;;5090030;28;20378;-58
2021/07/24 06:35:30;;;;;;;23.02;17.55;;;21.80;99.90;;;;;;5090687;28;20481;-58
2021/07/24 06:37:55;;;;;;;29.95;18.55;;;21.70;99.90;;;;;;5090054;28;20386;-58
2021/07/24 06:40:21;;;;;;;29.42;19.48;;;21.40;99.90;;;;;;5089544;28;20887;-58
2021/07/24 06:42:47;;;;;;;30.07;19.90;;;21.20;99.90;;;;;;5090117;28;20402;-56
2021/07/24 06:45:13;;;;;;;26.40;18.60;;;21.00;99.90;;;;;;5090444;28;20389;-57
2021/07/24 06:47:38;;;;;;;28.40;17.80;;;21.10;99.90;;;;;;5090791;28;20443;-58
2021/07/24 06:50:05;;;;;;;28.07;18.40;;;21.40;99.90;;;;;;5089595;28;20382;-58
2021/07/24 06:52:30;;;;;;;27.02;18.02;;;21.70;99.90;;;;;;5089996;28;20807;-58
2021/07/24 06:54:56;;;;;;;25.70;18.00;;;21.80;99.90;;;;;;5090228;28;20545;-58
2021/07/24 06:57:22;;;;;;;26.17;17.10;;;22.00;99.90;;;;;;5090623;28;20840;-58
2021/07/24 06:59:47;;;;;;;24.35;17.35;;;22.30;99.90;;;;;;5089729;28;20401;-56
2021/07/24 07:02:13;;;;;;;23.02;17.15;;;22.70;99.90;;;;;;5090273;28;20396;-58
2021/07/24 07:04:39;;;;;;;25.25;17.05;;;23.10;99.90;;;;;;5088955;28;20541;-58
2021/07/24 07:07:06;;;;;;;23.42;16.50;;;23.30;99.90;;;;;;5089188;28;20393;-58
2021/07/24 07:09:33;;;;;;;26.67;18.60;;;23.50;99.90;;;;;;5088844;28;20410;-58
2021/07/24 07:11:59;;;;;;;25.17;18.02;;;23.30;99.90;;;;;;5089104;28;20947;-58
2021/07/24 07:14:28;;;;;;;25.08;16.60;;;23.40;99.90;;;;;;5090257;28;20457;-55
2021/07/24 07:16:54;;;;;;;25.83;17.07;;;23.50;99.90;;;;;;5089298;28;20430;-58
2021/07/24 07:19:21;;;;;;;27.42;17.27;;;23.50;99.90;;;;;;5089864;28;20916;-57
2021/07/24 07:21:47;;;;;;;27.67;16.60;;;23.30;99.90;;;;;;5089934;28;20857;-56
2021/07/24 07:24:13;;;;;;;25.10;17.05;;;23.20;99.90;;;;;;5089633;28;20413;-58
2021/07/24 07:26:40;;;;;;;25.00;17.05;;;23.20;99.90;;;;;;5089535;28;20382;-58
2021/07/24 07:29:06;;;;;;;24.15;17.00;;;23.10;99.90;;;;;;5078888;28;20379;-58
2021/07/24 07:31:32;;;;;;;25.70;17.73;;;23.10;99.90;;;;;;5081808;28;20374;-58
2021/07/24 07:33:59;;;;;;;28.10;18.05;;;23.10;99.90;;;;;;5068968;28;20387;-58
2021/07/24 07:36:25;;;;;;;25.52;17.83;;;23.10;99.90;;;;;;5079591;28;20511;-58
2021/07/24 07:38:51;;;;;;;23.65;17.15;;;23.00;99.90;;;;;;5088868;28;20390;-57
2021/07/24 07:41:17;;;;;;;26.80;17.60;;;22.80;99.90;;;;;;5090135;28;20751;-58
2021/07/24 07:43:44;;;;;;;27.48;17.77;;;22.80;99.90;;;;;;5089472;28;20405;-58
2021/07/24 07:46:10;;;;;;;26.63;18.00;;;22.80;99.90;;;;;;5088911;28;20378;-58
2021/07/24 07:48:36;;;;;;;29.57;18.70;;;22.80;99.90;;;;;;5089827;28;20382;-58
2021/07/24 07:51:03;;;;;;;25.30;17.52;;;22.90;99.90;;;;;;5085757;28;20493;-58
2021/07/24 07:53:29;;;;;;;25.77;18.58;;;22.80;99.90;;;;;;5069418;28;20379;-57
2021/07/24 07:55:55;;;;;;;24.83;17.58;;;22.90;99.90;;;;;;5081302;28;20378;-58
2021/07/24 07:58:20;;;;;;;26.45;18.90;;;23.10;99.90;;;;;;5076099;28;20444;-58
2021/07/24 08:00:46;;;;;;;25.20;17.50;;;23.00;99.90;;;;;;5086226;28;20392;-56
2021/07/24 08:03:12;;;;;;;27.13;18.10;;;22.90;99.90;;;;;;5088919;28;20467;-57
2021/07/24 08:05:37;;;;;;;25.50;17.95;;;22.70;99.90;;;;;;5072832;28;20422;-58
2021/07/24 08:08:03;;;;;;;24.55;17.05;;;22.70;99.90;;;;;;5086797;28;20390;-58
2021/07/24 08:10:29;;;;;;;27.77;19.30;;;22.60;99.90;;;;;;5071605;28;20407;-58
2021/07/24 08:12:54;;;;;;;26.97;17.83;;;22.80;99.90;;;;;;5078769;28;20840;-58
2021/07/24 08:15:20;;;;;;;24.20;16.75;;;23.00;99.90;;;;;;5082968;28;20854;-57
2021/07/24 08:17:46;;;;;;;25.05;17.40;;;23.00;99.90;;;;;;5068783;28;20885;-58
2021/07/24 08:20:12;;;;;;;24.80;16.70;;;23.80;99.90;;;;;;5068206;28;20379;-58
2021/07/24 08:22:38;;;;;;;24.48;16.67;;;23.00;99.90;;;;;;5069171;28;20476;-58
2021/07/24 08:25:05;;;;;;;23.80;16.83;;;23.00;99.90;;;;;;5068149;28;20931;-58
2021/07/24 08:27:34;;;;;;;26.75;17.50;;;23.00;99.90;;;;;;5069163;28;20876;-57
2021/07/24 08:30:00;;;;;;;26.13;16.53;;;23.00;99.90;;;;;;5068025;28;20420;-57
2021/07/24 08:32:26;;;;;;;24.27;16.45;;;23.00;99.90;;;;;;5080079;28;20426;-57
2021/07/24 08:34:52;;;;;;;25.73;16.53;;;23.20;99.90;;;;;;5086468;28;20421;-57
2021/07/24 08:37:19;;;;;;;23.27;16.35;;;23.10;99.90;;;;;;5093551;28;20416;-57
2021/07/24 08:39:45;;;;;;;24.00;15.32;;;23.20;99.90;;;;;;5099984;28;20405;-58
2021/07/24 08:42:37;;;;;;;24.48;14.98;;;23.20;99.90;;;;;;5090864;28;20504;-57
2021/07/24 08:45:03;;;;;;;23.83;15.63;;;23.30;99.90;;;;;;5076382;28;20398;-57
2021/07/24 08:47:30;;;;;;;24.45;16.02;;;23.50;99.90;;;;;;5086392;28;20879;-55
2021/07/24 08:49:57;;;;;;;23.45;14.80;;;23.90;99.90;;;;;;5092343;28;20413;-56
2021/07/24 08:52:27;;;;;;;23.58;15.50;;;24.20;99.90;;;;;;5076839;28;20481;-56
2021/07/24 08:54:52;;;;;;;22.20;15.18;;;24.60;99.90;;;;;;5076491;28;20388;-55
2021/07/24 08:57:24;;;;;;;27.30;18.73;;;25.00;99.90;;;;;;5086128;28;20397;-58
2021/07/24 08:59:51;;;;;;;23.20;15.00;;;25.50;99.90;;;;;;5086675;28;20409;-55
2021/07/24 09:02:25;;;;;;;23.00;14.75;;;25.70;99.90;;;;;;5100332;28;20380;-57
2021/07/24 09:04:53;;;;;;;22.05;13.80;;;26.00;99.90;;;;;;5095789;28;20396;-55
2021/07/24 09:07:20;;;;;;;22.97;13.27;;;26.10;99.90;;;;;;5107463;28;20417;-57
2021/07/24 09:09:48;;;;;;;18.15;13.07;;;26.70;99.90;;;;;;5112288;28;20452;-57
2021/07/24 09:12:13;;;;;;;20.27;14.30;;;27.30;99.90;;;;;;5112572;28;20461;-57
2021/07/24 09:14:39;;;;;;;19.63;13.07;;;27.70;99.90;;;;;;5112937;28;20396;-57
2021/07/24 09:17:08;;;;;;;18.27;13.00;;;27.90;99.90;;;;;;5112224;28;20707;-57
2021/07/24 09:19:36;;;;;;;20.00;13.35;;;29.10;99.90;;;;;;5112343;28;20842;-55
2021/07/24 09:22:03;;;;;;;18.85;12.95;;;30.10;99.90;;;;;;5110890;28;21290;-56
2021/07/24 09:24:29;;;;;;;15.40;11.83;;;31.00;99.90;;;;;;5112360;28;20400;-55
2021/07/24 09:26:54;;;;;;;16.90;12.10;;;32.10;99.90;;;;;;5111542;28;20766;-56
2021/07/24 09:29:21;;;;;;;16.13;12.10;;;32.60;95.70;;;;;;5100183;28;20379;-57
2021/07/24 09:31:48;;;;;;;17.02;11.70;;;33.60;95.20;;;;;;5091777;28;20382;-56
2021/07/24 09:34:15;;;;;;;15.73;12.30;;;33.70;90.30;;;;;;5091075;28;20889;-56
2021/07/24 09:36:42;;;;;;;16.63;11.45;;;33.00;90.80;;;;;;5090021;28;20434;-57
2021/07/24 09:39:12;;;;;;;18.92;12.40;;;32.90;89.90;;;;;;5090607;28;20895;-56
2021/07/24 09:41:39;;;;;;;16.67;11.63;;;32.20;90.20;;;;;;5090840;28;20436;-56
2021/07/24 09:44:05;;;;;;;16.30;12.18;;;32.30;90.20;;;;;;5090785;28;20409;-58
2021/07/24 09:46:31;;;;;;;18.88;12.80;;;32.10;90.70;;;;;;5091256;28;20374;-57
2021/07/24 09:49:08;;;;;;;15.90;11.93;;;32.50;90.00;;;;;;5090449;28;20410;-56
2021/07/24 09:51:42;;;;;;;15.57;12.30;;;33.20;89.40;;;;;;5091920;28;20377;-56
2021/07/24 09:54:28;;;;;;;17.10;12.70;;;34.30;81.40;;;;;;5090467;28;20493;-57
2021/07/24 09:56:56;;;;;;;15.90;11.68;;;35.30;76.70;;;;;;5086830;28;21000;-57
2021/07/24 09:59:24;;;;;;;17.92;13.27;;;34.40;73.40;;;;;;5092007;28;20868;-56
2021/07/24 10:01:54;;;;;;;15.90;12.50;;;32.70;79.30;;;;;;5091024;28;20923;-55
2021/07/24 10:04:46;;;;;;;19.75;13.55;;;33.00;82.10;;;;;;5091368;28;20425;-56
2021/07/24 10:07:12;;;;;;;16.48;12.80;;;33.40;79.70;;;;;;5090809;28;20409;-56
2021/07/24 10:09:41;;;;;;;18.80;16.40;;;32.80;80.30;;;;;;5087777;28;20398;-57
2021/07/24 10:12:13;;;;;;;19.80;13.00;;;32.10;83.10;;;;;;5073295;28;20387;-56
2021/07/24 10:14:39;;;;;;;22.17;14.60;;;32.20;84.40;;;;;;5079332;28;20383;-56
2021/07/24 10:17:06;;;;;;;17.90;12.98;;;32.70;82.90;;;;;;5090073;28;20404;-56
2021/07/24 10:19:32;;;;;;;17.08;13.10;;;34.30;81.30;;;;;;5096242;28;20909;-56
2021/07/24 10:21:59;;;;;;;19.48;14.32;;;34.50;76.10;;;;;;5110809;28;20425;-57
2021/07/24 10:24:25;;;;;;;18.60;12.25;;;34.70;78.80;;;;;;5111376;28;20404;-56
2021/07/24 10:26:57;;;;;;;18.00;12.00;;;34.80;74.80;;;;;;5110804;28;20719;-55
2021/07/24 10:29:57;;;;;;;16.30;11.30;;;33.90;77.20;;;;;;5110904;28;20399;-57
2021/07/24 10:32:28;;;;;;;18.33;12.77;;;32.80;79.20;;;;;;5112133;28;20826;-56
2021/07/24 10:34:55;;;;;;;16.25;12.10;;;32.10;82.00;;;;;;5110500;28;20373;-55
2021/07/24 10:37:42;;;;;;;17.27;12.43;;;31.70;81.90;;;;;;5111354;28;20974;-56
2021/07/24 10:40:19;;;;;;;16.10;11.95;;;31.70;82.40;;;;;;5110898;28;20385;-57
2021/07/24 10:42:48;;;;;;;16.50;11.60;;;31.60;84.00;;;;;;5110713;28;20399;-56
2021/07/24 10:45:37;;;;;;;18.50;12.90;;;31.30;83.60;;;;;;5109127;28;20928;-57
2021/07/24 10:48:14;;;;;;;18.85;12.10;;;31.40;85.70;;;;;;5110351;28;20467;-56
2021/07/24 10:50:58;;;;;;;14.85;11.02;;;31.70;84.40;;;;;;5111285;28;20389;-56
2021/07/24 10:53:28;;;;;;;14.43;11.10;;;31.30;81.50;;;;;;5111227;28;20411;-56
2021/07/24 10:55:56;;;;;;;16.80;11.18;;;30.70;80.00;;;;;;5110253;28;20376;-57
2021/07/24 10:58:23;;;;;;;15.30;9.85;;;30.50;82.00;;;;;;5110933;28;20406;-56
2021/07/24 11:00:56;;;;;;;16.27;12.00;;;31.10;83.50;;;;;;5091540;28;20391;-56
2021/07/24 11:03:34;;;;;;;13.93;10.20;;;31.80;81.90;;;;;;5089859;28;20495;-56
2021/07/24 11:06:00;;;;;;;14.40;9.93;;;31.50;80.40;;;;;;5089404;28;20393;-57
2021/07/24 11:08:57;;;;;;;14.43;9.82;;;31.20;78.60;;;;;;5090279;28;20882;-57
2021/07/24 11:12:01;;;;;;;14.07;9.70;;;30.80;80.10;;;;;;5090209;28;20401;-57
2021/07/24 11:14:30;;;;;;;15.30;9.60;;;30.60;82.90;;;;;;5090437;28;20390;-57
2021/07/24 11:17:05;;;;;;;12.00;8.40;;;30.70;81.00;;;;;;5089561;28;20401;-57
2021/07/24 11:19:44;;;;;;;12.50;8.07;;;30.60;81.70;;;;;;5090157;28;20390;-57
2021/07/24 11:22:18;;;;;;;11.00;8.10;;;30.80;79.70;;;;;;5089663;28;20719;-56
2021/07/24 11:25:04;;;;;;;14.20;9.25;;;30.30;80.10;;;;;;5090147;28;20390;-57
2021/07/24 11:27:34;;;;;;;13.40;8.73;;;30.10;80.30;;;;;;5089936;28;20465;-56
2021/07/24 11:30:05;;;;;;;14.57;8.45;;;29.60;82.20;;;;;;5089437;28;20473;-57
2021/07/24 11:32:35;;;;;;;13.90;8.52;;;29.70;80.40;;;;;;5089262;28;20879;-57
2021/07/24 11:35:06;;;;;;;12.63;8.37;;;29.50;80.20;;;;;;5088649;28;20480;-57
2021/07/24 11:37:47;;;;;;;14.50;8.38;;;29.60;81.30;;;;;;5088403;28;20390;-57
2021/07/24 11:40:18;;;;;;;13.25;8.20;;;29.90;80.70;;;;;;5088824;28;20432;-57
2021/07/24 11:43:04;;;;;;;12.40;8.13;;;30.00;80.20;;;;;;5089948;28;20424;-59
2021/07/24 11:45:32;;;;;;;12.60;8.00;;;29.80;82.00;;;;;;5088021;28;20804;-59
2021/07/24 11:48:15;;;;;;;14.75;8.00;;;29.40;81.80;;;;;;5088667;28;20386;-58
2021/07/24 11:50:42;;;;;;;12.50;8.13;;;29.20;81.70;;;;;;5089016;28;20445;-59
2021/07/24 11:53:09;;;;;;;11.97;8.07;;;28.90;83.40;;;;;;5088471;28;20382;-57
2021/07/24 11:55:36;;;;;;;15.20;8.90;;;28.90;83.80;;;;;;5089396;28;20735;-58
2021/07/24 11:58:06;;;;;;;12.02;7.50;;;29.00;83.30;;;;;;5088313;28;20469;-58
2021/07/24 12:00:34;;;;;;;14.10;8.90;;;29.00;84.50;;;;;;5089367;28;20382;-58
2021/07/24 12:03:19;;;;;;;12.98;8.30;;;29.10;85.50;;;;;;5088721;28;20401;-57
2021/07/24 12:05:49;;;;;;;11.50;8.43;;;29.40;86.20;;;;;;5087837;28;20406;-58
2021/07/24 12:08:23;;;;;;;13.23;8.43;;;29.30;86.10;;;;;;5088597;28;20432;-59
2021/07/24 12:10:50;;;;;;;14.50;8.18;;;29.40;86.30;;;;;;5089111;28;20507;-55
2021/07/24 12:13:26;;;;;;;12.73;8.82;;;29.80;84.50;;;;;;5088521;28;20384;-55
2021/07/24 12:15:52;;;;;;;12.30;7.97;;;30.40;84.40;;;;;;5089173;28;20782;-56
2021/07/24 12:18:18;;;;;;;11.90;8.65;;;30.40;83.70;;;;;;5089001;28;20382;-56
2021/07/24 12:20:44;;;;;;;14.20;8.60;;;30.40;83.70;;;;;;5088748;28;20879;-57
2021/07/24 12:23:23;;;;;;;14.80;9.20;;;30.30;85.00;;;;;;5088613;28;20398;-57
2021/07/24 12:26:19;;;;;;;13.80;8.70;;;30.50;84.90;;;;;;5087770;28;20756;-57
2021/07/24 12:28:45;;;;;;;13.77;9.27;;;30.70;83.60;;;;;;5085968;28;20394;-57
2021/07/24 12:31:23;;;;;;;14.30;8.50;;;30.70;84.00;;;;;;5088195;28;20462;-57
2021/07/24 12:33:49;;;;;;;15.63;8.77;;;30.50;83.40;;;;;;5089065;28;20382;-57
2021/07/24 12:36:16;;;;;;;13.52;8.82;;;30.20;83.70;;;;;;5087868;28;20398;-57